createdAt,value
2019-04-07T00:01:47.989Z,999.90
2019-04-07T00:04:20.272Z,999.90
2019-04-07T00:06:52.123Z,999.90
2019-04-07T00:09:23.861Z,999.90
2019-04-07T00:11:55.377Z,999.90
2019-04-07T00:14:27.281Z,999.90
2019-04-07T00:16:59.556Z,999.90
2019-04-07T00:19:31.595Z,999.90
2019-04-07T00:22:03.831Z,999.90
2019-04-07T00:24:35.344Z,999.90
2019-04-07T00:27:06.966Z,999.90
2019-04-07T00:29:39.368Z,999.90
2019-04-07T00:32:11.245Z,999.90
2019-04-07T00:34:43.048Z,999.90
2019-04-07T00:37:15.028Z,999.90
2019-04-07T00:39:47.696Z,999.90
2019-04-07T00:42:19.419Z,999.90
2019-04-07T00:44:51.001Z,999.90
2019-04-07T00:47:23.411Z,999.90
2019-04-07T00:49:55.582Z,999.90
2019-04-07T00:52:27.332Z,999.90
2019-04-07T00:54:58.911Z,999.90
2019-04-07T00:57:30.395Z,999.90
2019-04-07T01:00:02.902Z,999.90
2019-04-07T01:02:34.558Z,999.90
2019-04-07T01:05:09.231Z,999.90
2019-04-07T01:07:41.036Z,999.90
2019-04-07T01:10:12.894Z,999.90
2019-04-07T01:12:44.590Z,999.90
2019-04-07T01:15:16.353Z,999.90
2019-04-07T01:17:47.855Z,999.90
2019-04-07T01:20:19.547Z,999.90
2019-04-07T01:22:51.591Z,999.90
2019-04-07T01:25:23.480Z,999.90
2019-04-07T01:27:55.825Z,999.90
2019-04-07T01:30:27.431Z,999.90
2019-04-07T01:32:58.951Z,999.90
2019-04-07T01:35:30.503Z,999.90
2019-04-07T01:38:02.464Z,999.90
2019-04-07T01:40:35.344Z,999.90
2019-04-07T01:43:23.857Z,999.90
2019-04-07T01:46:20.954Z,999.90
2019-04-07T01:49:15.031Z,999.90
2019-04-07T01:52:01.944Z,999.90
2019-04-07T01:54:59.051Z,999.90
2019-04-07T01:57:52.771Z,999.90
2019-04-07T02:00:32.851Z,999.90
2019-04-07T02:03:14.544Z,999.90
2019-04-07T02:06:06.762Z,999.90
2019-04-07T02:08:51.797Z,999.90
2019-04-07T02:11:39.752Z,999.90
2019-04-07T02:14:36.867Z,999.90
2019-04-07T02:17:19.897Z,999.90
2019-04-07T02:20:10.316Z,999.90
2019-04-07T02:22:53.132Z,999.90
2019-04-07T02:25:42.805Z,999.90
2019-04-07T02:28:23.316Z,999.90
2019-04-07T02:31:06.793Z,999.90
2019-04-07T02:33:49.945Z,999.90
2019-04-07T02:36:35.676Z,999.90
2019-04-07T02:39:13.751Z,999.90
2019-04-07T02:42:04.641Z,999.90
2019-04-07T02:44:55.386Z,999.90
2019-04-07T02:47:53.180Z,999.90
2019-04-07T02:50:45.223Z,999.90
2019-04-07T02:53:37.069Z,999.90
2019-04-07T02:56:29.371Z,999.90
2019-04-07T02:59:10.056Z,999.90
2019-04-07T03:02:04.750Z,999.90
2019-04-07T03:04:50.113Z,999.90
2019-04-07T03:07:53.718Z,999.90
2019-04-07T03:10:33.381Z,999.90
2019-04-07T03:13:43.295Z,999.90
2019-04-07T03:16:40.650Z,999.90
2019-04-07T03:19:25.453Z,999.90
2019-04-07T03:22:08.560Z,999.90
2019-04-07T03:24:53.127Z,999.90
2019-04-07T03:27:36.893Z,999.90
2019-04-07T03:30:20.786Z,999.90
2019-04-07T03:33:06.075Z,999.90
2019-04-07T03:36:02.664Z,999.90
2019-04-07T03:39:04.376Z,999.90
2019-04-07T03:41:51.260Z,999.90
2019-04-07T03:44:51.986Z,999.90
2019-04-07T03:47:45.721Z,999.90
2019-04-07T03:50:23.097Z,999.90
2019-04-07T03:53:15.772Z,999.90
2019-04-07T03:55:57.800Z,999.90
2019-04-07T03:58:51.259Z,999.90
2019-04-07T04:01:48.378Z,999.90
2019-04-07T04:04:39.980Z,999.90
2019-04-07T04:07:29.943Z,999.90
2019-04-07T04:10:01.075Z,999.90
2019-04-07T04:12:53.057Z,999.90
2019-04-07T04:15:31.417Z,999.90
2019-04-07T04:18:03.484Z,999.90
2019-04-07T04:20:35.168Z,999.90
2019-04-07T04:23:06.819Z,999.90
2019-04-07T04:25:38.777Z,999.90
2019-04-07T04:28:10.386Z,999.90
2019-04-07T04:30:42.066Z,999.90
2019-04-07T04:33:13.566Z,999.90
2019-04-07T04:35:46.011Z,999.90
2019-04-07T04:38:17.887Z,999.90
2019-04-07T04:40:50.473Z,999.90
2019-04-07T04:43:22.192Z,999.90
2019-04-07T04:45:54.585Z,999.90
2019-04-07T04:48:26.385Z,999.90
2019-04-07T04:50:58.179Z,999.90
2019-04-07T04:53:30.847Z,999.90
2019-04-07T04:56:02.971Z,999.90
2019-04-07T04:58:35.959Z,999.90
2019-04-07T05:01:08.375Z,999.90
2019-04-07T05:03:40.580Z,999.90
2019-04-07T05:06:13.286Z,999.90
2019-04-07T05:08:45.642Z,999.90
2019-04-07T05:11:17.513Z,999.90
2019-04-07T05:13:49.091Z,999.90
2019-04-07T05:16:21.404Z,999.90
2019-04-07T05:18:53.246Z,999.90
2019-04-07T05:21:25.055Z,999.90
2019-04-07T05:23:56.660Z,999.90
2019-04-07T05:26:29.099Z,999.90
2019-04-07T05:29:01.448Z,999.90
2019-04-07T05:31:33.704Z,999.90
2019-04-07T05:34:05.402Z,999.90
2019-04-07T05:36:37.947Z,999.90
2019-04-07T05:39:10.250Z,999.90
2019-04-07T05:41:41.924Z,999.90
2019-04-07T05:44:13.552Z,999.90
2019-04-07T05:46:45.319Z,999.90
2019-04-07T05:49:18.556Z,999.90
2019-04-07T05:51:50.662Z,999.90
2019-04-07T05:54:22.554Z,999.90
2019-04-07T05:56:58.721Z,999.90
2019-04-07T05:59:27.636Z,999.90
2019-04-07T06:02:01.571Z,999.90
2019-04-07T06:04:32.590Z,999.90
2019-04-07T06:07:04.611Z,999.90
2019-04-07T06:09:37.259Z,999.90
2019-04-07T06:12:09.865Z,999.90
2019-04-07T06:14:45.901Z,999.90
2019-04-07T06:17:16.265Z,999.90
2019-04-07T06:19:47.756Z,999.90
2019-04-07T06:22:20.759Z,999.90
2019-04-07T06:24:52.796Z,999.90
2019-04-07T06:27:24.410Z,999.90
2019-04-07T06:29:59.636Z,999.90
2019-04-07T06:32:29.944Z,999.90
2019-04-07T06:35:01.874Z,999.90
2019-04-07T06:37:33.712Z,999.90
2019-04-07T06:40:06.509Z,999.90
2019-04-07T06:42:38.761Z,999.90
2019-04-07T06:45:12.903Z,999.90
2019-04-07T06:47:50.787Z,999.90
2019-04-07T06:51:00.796Z,999.90
2019-04-07T06:54:00.266Z,999.90
2019-04-07T06:56:46.871Z,999.90
2019-04-07T06:59:35.517Z,999.90
2019-04-07T07:02:29.049Z,999.90
2019-04-07T07:05:17.859Z,999.90
2019-04-07T07:08:08.477Z,999.90
2019-04-07T07:10:50.791Z,999.90
2019-04-07T07:13:36.594Z,999.90
2019-04-07T07:16:17.296Z,999.90
2019-04-07T07:19:15.162Z,999.90
2019-04-07T07:22:10.023Z,999.90
2019-04-07T07:24:38.150Z,999.90
2019-04-07T07:27:11.366Z,999.90
2019-04-07T07:29:45.959Z,999.90
2019-04-07T07:32:17.028Z,999.90
2019-04-07T07:34:48.482Z,999.90
2019-04-07T07:37:20.551Z,891.00
2019-04-07T07:39:52.184Z,678.20
2019-04-07T07:42:24.474Z,560.23
2019-04-07T07:44:56.095Z,763.60
2019-04-07T07:47:27.652Z,999.90
2019-04-07T07:49:59.718Z,999.90
2019-04-07T07:52:31.852Z,999.90
2019-04-07T07:55:03.878Z,999.90
2019-04-07T07:57:35.592Z,999.90
2019-04-07T08:00:08.331Z,999.90
2019-04-07T08:02:40.212Z,999.90
2019-04-07T08:05:12.444Z,999.90
2019-04-07T08:07:46.813Z,956.83
2019-04-07T08:10:18.583Z,999.90
2019-04-07T08:12:50.871Z,999.90
2019-04-07T08:15:25.460Z,970.50
2019-04-07T08:17:56.337Z,497.07
2019-04-07T08:20:28.544Z,286.97
2019-04-07T08:23:00.718Z,31.30
2019-04-07T08:25:32.563Z,35.67
2019-04-07T08:28:04.689Z,29.27
2019-04-07T08:30:36.261Z,27.80
2019-04-07T08:33:08.276Z,27.90
2019-04-07T08:35:40.705Z,27.00
2019-04-07T08:38:13.835Z,25.80
2019-04-07T08:40:46.778Z,25.30
2019-04-07T08:43:21.361Z,25.90
2019-04-07T08:45:52.568Z,26.87
2019-04-07T08:48:25.610Z,25.33
2019-04-07T08:50:59.410Z,25.10
2019-04-07T08:53:30.662Z,25.23
2019-04-07T08:56:02.379Z,24.30
2019-04-07T08:58:38.474Z,25.30
2019-04-07T09:01:07.617Z,26.47
2019-04-07T09:03:39.947Z,26.43
2019-04-07T09:06:11.839Z,24.17
2019-04-07T09:08:43.954Z,25.50
2019-04-07T09:11:20.651Z,25.00
2019-04-07T09:13:54.852Z,24.00
2019-04-07T09:16:36.990Z,24.80
2019-04-07T09:19:19.348Z,24.20
2019-04-07T09:22:01.899Z,23.03
2019-04-07T09:24:47.230Z,23.73
2019-04-07T09:27:38.474Z,24.23
2019-04-07T09:30:17.541Z,25.17
2019-04-07T09:33:08.297Z,25.00
2019-04-07T09:36:00.609Z,24.43
2019-04-07T09:38:37.222Z,24.40
2019-04-07T09:41:32.168Z,24.23
2019-04-07T09:44:19.811Z,23.60
2019-04-07T09:47:08.736Z,22.67
2019-04-07T09:50:10.276Z,23.40
2019-04-07T09:52:52.124Z,17.67
2019-04-07T09:55:46.392Z,21.60
2019-04-07T09:58:42.708Z,22.17
2019-04-07T10:01:44.699Z,21.13
2019-04-07T10:04:38.555Z,22.17
2019-04-07T10:07:26.623Z,21.23
2019-04-07T10:10:22.658Z,20.73
2019-04-07T10:13:05.545Z,20.77
2019-04-07T10:15:57.410Z,20.90
2019-04-07T10:19:01.856Z,19.70
2019-04-07T10:22:05.045Z,20.10
2019-04-07T10:24:54.777Z,19.57
2019-04-07T10:27:39.691Z,17.13
2019-04-07T10:30:49.514Z,17.93
2019-04-07T10:33:47.114Z,19.10
2019-04-07T10:36:25.411Z,19.10
2019-04-07T10:39:17.576Z,19.50
2019-04-07T10:42:07.473Z,20.67
2019-04-07T10:44:46.882Z,18.53
2019-04-07T10:47:33.525Z,18.73
2019-04-07T10:50:22.186Z,18.90
2019-04-07T10:53:02.657Z,19.20
2019-04-07T10:55:43.089Z,17.50
2019-04-07T10:58:24.884Z,16.80
2019-04-07T11:01:06.423Z,18.03
2019-04-07T11:03:56.722Z,18.30
2019-04-07T11:06:40.598Z,16.40
2019-04-07T11:09:32.781Z,19.20
2019-04-07T11:12:23.242Z,18.77
2019-04-07T11:15:13.735Z,19.70
2019-04-07T11:18:04.165Z,18.10
2019-04-07T11:20:45.557Z,17.10
2019-04-07T11:23:24.154Z,17.40
2019-04-07T11:26:14.369Z,17.20
2019-04-07T11:28:53.667Z,16.63
2019-04-07T11:31:29.969Z,18.17
2019-04-07T11:34:07.541Z,16.20
2019-04-07T11:37:09.926Z,20.50
2019-04-07T11:40:09.142Z,19.50
2019-04-07T11:42:46.090Z,19.00
2019-04-07T11:45:24.614Z,17.87
2019-04-07T11:48:08.494Z,19.20
2019-04-07T11:50:46.150Z,18.43
2019-04-07T11:53:23.192Z,18.60
2019-04-07T11:56:15.164Z,19.10
2019-04-07T11:59:07.463Z,18.83
2019-04-07T12:01:56.509Z,17.80
2019-04-07T12:04:46.869Z,19.80
2019-04-07T12:07:27.418Z,18.20
2019-04-07T12:10:18.547Z,18.60
2019-04-07T12:13:06.639Z,19.87
2019-04-07T12:15:46.283Z,20.60
2019-04-07T12:18:35.325Z,20.00
2019-04-07T12:21:25.784Z,20.67
2019-04-07T12:24:04.746Z,17.93
2019-04-07T12:27:10.851Z,17.80
2019-04-07T12:29:56.862Z,17.83
2019-04-07T12:32:50.866Z,16.87
2019-04-07T12:35:33.913Z,17.40
2019-04-07T12:38:22.692Z,18.60
2019-04-07T12:41:20.957Z,19.03
2019-04-07T12:44:04.498Z,17.90
2019-04-07T12:46:55.634Z,18.03
2019-04-07T12:49:49.285Z,18.47
2019-04-07T12:52:49.352Z,16.50
2019-04-07T12:55:35.031Z,16.47
2019-04-07T12:58:35.646Z,16.73
2019-04-07T13:01:29.170Z,14.90
2019-04-07T13:04:11.168Z,13.40
2019-04-07T13:06:51.397Z,15.33
2019-04-07T13:09:33.364Z,16.43
2019-04-07T13:12:22.345Z,16.60
2019-04-07T13:15:14.094Z,15.20
2019-04-07T13:18:13.591Z,15.30
2019-04-07T13:20:55.412Z,16.07
2019-04-07T13:23:31.866Z,17.20
2019-04-07T13:26:16.470Z,16.70
2019-04-07T13:29:07.805Z,14.40
2019-04-07T13:32:01.918Z,15.93
2019-04-07T13:34:49.853Z,17.17
2019-04-07T13:37:29.733Z,16.30
2019-04-07T13:40:14.104Z,16.60
2019-04-07T13:43:04.149Z,19.00
2019-04-07T13:45:55.813Z,19.40
2019-04-07T13:48:51.569Z,20.27
2019-04-07T13:51:33.103Z,18.90
2019-04-07T13:54:22.276Z,18.57
2019-04-07T13:57:06.668Z,17.10
2019-04-07T13:59:58.110Z,17.57
2019-04-07T14:02:49.903Z,18.70
2019-04-07T14:05:53.551Z,15.70
2019-04-07T14:08:43.803Z,17.80
2019-04-07T14:11:35.110Z,16.20
2019-04-07T14:14:32.641Z,16.20
2019-04-07T14:17:30.801Z,17.30
2019-04-07T14:20:12.539Z,17.43
2019-04-07T14:23:10.981Z,18.40
2019-04-07T14:26:08.086Z,17.03
2019-04-07T14:28:45.704Z,16.50
2019-04-07T14:31:34.727Z,15.90
2019-04-07T14:34:19.485Z,17.00
2019-04-07T14:37:18.626Z,17.30
2019-04-07T14:40:16.243Z,17.90
2019-04-07T14:42:55.240Z,16.13
2019-04-07T14:45:49.051Z,15.17
2019-04-07T14:48:37.654Z,13.90
2019-04-07T14:51:30.763Z,14.80
2019-04-07T14:54:34.590Z,13.83
2019-04-07T14:57:15.535Z,13.80
2019-04-07T15:00:03.969Z,14.67
2019-04-07T15:02:35.499Z,12.00
2019-04-07T15:05:28.828Z,12.20
2019-04-07T15:08:20.501Z,10.87
2019-04-07T15:10:56.282Z,11.50
2019-04-07T15:13:28.325Z,11.40
2019-04-07T15:16:00.935Z,11.27
2019-04-07T15:18:32.437Z,10.60
2019-04-07T15:21:04.618Z,10.70
2019-04-07T15:23:36.829Z,11.57
2019-04-07T15:26:08.956Z,12.00
2019-04-07T15:28:41.578Z,12.00
2019-04-07T15:31:13.349Z,11.70
2019-04-07T15:33:45.527Z,10.93
2019-04-07T15:36:18.722Z,11.20
2019-04-07T15:38:50.602Z,10.33
2019-04-07T15:41:23.301Z,11.43
2019-04-07T15:43:55.310Z,11.33
2019-04-07T15:46:26.934Z,10.47
2019-04-07T15:48:59.430Z,10.57
2019-04-07T15:51:34.017Z,11.10
2019-04-07T15:54:05.008Z,9.80
2019-04-07T15:56:36.839Z,11.10
2019-04-07T15:59:08.782Z,10.40
2019-04-07T16:01:40.675Z,9.47
2019-04-07T16:04:12.785Z,9.90
2019-04-07T16:06:48.736Z,11.10
2019-04-07T16:09:31.564Z,11.43
2019-04-07T16:11:51.917Z,9.53
2019-04-07T16:14:24.162Z,10.30
2019-04-07T16:17:00.294Z,10.23
2019-04-07T16:19:40.052Z,10.50
2019-04-07T16:22:03.416Z,10.90
2019-04-07T16:24:35.903Z,10.30
2019-04-07T16:27:08.107Z,10.33
2019-04-07T16:29:40.997Z,11.23
2019-04-07T16:32:13.531Z,10.33
2019-04-07T16:34:46.260Z,10.63
2019-04-07T16:37:18.029Z,9.97
2019-04-07T16:39:50.129Z,9.90
2019-04-07T16:42:21.680Z,10.53
2019-04-07T16:44:53.760Z,10.50
2019-04-07T16:47:29.268Z,10.00
2019-04-07T16:49:59.869Z,10.73
2019-04-07T16:52:33.141Z,10.53
2019-04-07T16:55:07.074Z,10.50
2019-04-07T16:57:40.408Z,10.77
2019-04-07T17:00:15.130Z,10.80
2019-04-07T17:02:47.792Z,10.03
2019-04-07T17:05:21.986Z,11.90
2019-04-07T17:07:55.699Z,11.07
2019-04-07T17:10:31.345Z,10.07
2019-04-07T17:13:02.912Z,10.67
2019-04-07T17:15:38.202Z,11.80
2019-04-07T17:18:41.628Z,10.67
2019-04-07T17:21:16.094Z,11.23
2019-04-07T17:23:48.051Z,12.10
2019-04-07T17:26:21.857Z,13.00
2019-04-07T17:28:55.679Z,12.77
2019-04-07T17:31:29.897Z,11.70
2019-04-07T17:34:03.938Z,12.60
2019-04-07T17:36:35.404Z,11.97
2019-04-07T17:39:37.734Z,13.10
2019-04-07T17:42:12.039Z,12.33
2019-04-07T17:45:13.112Z,13.63
2019-04-07T17:48:06.889Z,13.23
2019-04-07T17:51:08.720Z,12.17
2019-04-07T17:53:55.141Z,12.93
2019-04-07T17:56:52.545Z,13.07
2019-04-07T17:59:31.213Z,13.00
2019-04-07T18:02:43.148Z,13.40
2019-04-07T18:05:49.764Z,13.93
2019-04-07T18:08:36.238Z,12.47
2019-04-07T18:11:31.764Z,12.67
2019-04-07T18:14:22.378Z,13.03
2019-04-07T18:17:04.459Z,12.40
2019-04-07T18:19:54.599Z,13.00
2019-04-07T18:22:37.470Z,14.07
2019-04-07T18:25:33.117Z,12.93
2019-04-07T18:28:23.054Z,12.10
2019-04-07T18:31:08.048Z,13.03
2019-04-07T18:34:03.864Z,12.47
2019-04-07T18:36:57.776Z,12.47
2019-04-07T18:39:59.118Z,13.13
2019-04-07T18:42:57.717Z,12.67
2019-04-07T18:45:49.974Z,16.47
2019-04-07T18:48:53.273Z,13.63
2019-04-07T18:51:34.177Z,13.30
2019-04-07T18:54:37.457Z,13.60
2019-04-07T18:57:27.636Z,13.33
2019-04-07T19:00:18.954Z,12.90
2019-04-07T19:03:18.120Z,14.40
2019-04-07T19:06:08.599Z,13.50
2019-04-07T19:09:00.064Z,15.33
2019-04-07T19:12:03.641Z,12.30
2019-04-07T19:14:44.484Z,13.20
2019-04-07T19:17:17.189Z,14.07
2019-04-07T19:20:21.680Z,13.43
2019-04-07T19:23:16.362Z,12.87
2019-04-07T19:25:56.596Z,16.60
2019-04-07T19:28:40.329Z,17.03
2019-04-07T19:31:43.408Z,18.80
2019-04-07T19:34:32.829Z,15.03
2019-04-07T19:37:23.266Z,14.57
2019-04-07T19:40:18.843Z,16.80
2019-04-07T19:43:10.685Z,13.10
2019-04-07T19:45:57.070Z,12.63
2019-04-07T19:48:42.490Z,14.43
2019-04-07T19:51:31.998Z,25.90
2019-04-07T19:54:21.938Z,37.73
2019-04-07T19:57:13.333Z,29.20
2019-04-07T19:59:52.802Z,67.70
2019-04-07T20:02:44.674Z,41.87
2019-04-07T20:05:42.944Z,35.07
2019-04-07T20:08:33.854Z,37.27
2019-04-07T20:11:11.800Z,30.37
2019-04-07T20:13:57.245Z,97.00
2019-04-07T20:16:41.299Z,38.53
2019-04-07T20:19:27.450Z,32.43
2019-04-07T20:22:25.678Z,69.73
2019-04-07T20:25:18.538Z,102.17
2019-04-07T20:27:57.433Z,119.50
2019-04-07T20:30:48.581Z,130.83
2019-04-07T20:33:45.702Z,140.53
2019-04-07T20:36:27.761Z,141.00
2019-04-07T20:39:05.793Z,120.60
2019-04-07T20:42:00.936Z,118.53
2019-04-07T20:44:42.566Z,107.60
2019-04-07T20:47:42.943Z,99.37
2019-04-07T20:50:25.551Z,100.10
2019-04-07T20:53:21.769Z,388.10
2019-04-07T20:56:16.504Z,549.00
2019-04-07T20:59:04.235Z,964.27
2019-04-07T21:01:59.405Z,999.90
2019-04-07T21:04:37.591Z,999.90
2019-04-07T21:07:37.414Z,999.90
2019-04-07T21:10:24.842Z,999.90
2019-04-07T21:13:32.200Z,999.90
2019-04-07T21:16:16.582Z,999.90
2019-04-07T21:19:05.506Z,999.90
2019-04-07T21:21:54.605Z,999.90
2019-04-07T21:24:37.071Z,999.90
2019-04-07T21:27:20.606Z,999.90
2019-04-07T21:29:59.117Z,999.90
2019-04-07T21:32:52.570Z,999.90
2019-04-07T21:35:35.331Z,999.90
2019-04-07T21:38:16.164Z,999.90
2019-04-07T21:40:58.238Z,999.90
2019-04-07T21:43:59.606Z,905.10
2019-04-07T21:46:52.053Z,996.77
2019-04-07T21:49:39.488Z,610.03
2019-04-07T21:52:21.032Z,371.50
2019-04-07T21:55:18.864Z,999.90
2019-04-07T21:58:13.289Z,999.90
2019-04-07T22:00:53.053Z,999.90
2019-04-07T22:03:49.254Z,999.90
2019-04-07T22:06:35.985Z,999.90
2019-04-07T22:09:18.390Z,999.90
2019-04-07T22:11:51.541Z,999.90
2019-04-07T22:14:24.019Z,999.90
2019-04-07T22:16:55.526Z,999.90
2019-04-07T22:19:27.091Z,999.90
2019-04-07T22:21:58.655Z,999.90
2019-04-07T22:24:33.948Z,999.90
2019-04-07T22:27:05.523Z,999.90
2019-04-07T22:29:37.535Z,999.90
2019-04-07T22:32:09.002Z,999.90
2019-04-07T22:34:40.611Z,999.90
2019-04-07T22:37:12.266Z,999.90
2019-04-07T22:39:45.527Z,999.90
2019-04-07T22:42:18.278Z,999.90
2019-04-07T22:44:53.811Z,999.90
2019-04-07T22:47:24.315Z,999.90
2019-04-07T22:49:55.815Z,999.90
2019-04-07T22:52:30.075Z,999.90
2019-04-07T22:55:04.781Z,999.90
2019-04-07T22:57:35.541Z,999.90
2019-04-07T23:00:10.809Z,999.90
2019-04-07T23:02:42.448Z,999.90
2019-04-07T23:05:14.807Z,999.90
2019-04-07T23:07:46.469Z,999.90
2019-04-07T23:10:17.964Z,999.90
2019-04-07T23:12:49.906Z,999.90
2019-04-07T23:15:21.574Z,999.90
2019-04-07T23:17:53.586Z,999.90
2019-04-07T23:20:25.121Z,999.90
2019-04-07T23:22:56.682Z,999.90
2019-04-07T23:25:28.421Z,999.90
2019-04-07T23:28:00.601Z,999.90
2019-04-07T23:30:32.184Z,999.90
2019-04-07T23:33:04.272Z,999.90
2019-04-07T23:35:35.912Z,999.90
2019-04-07T23:38:07.909Z,999.90
2019-04-07T23:40:39.874Z,999.90
2019-04-07T23:43:11.793Z,999.90
2019-04-07T23:45:44.167Z,999.90
2019-04-07T23:48:15.902Z,999.90
2019-04-07T23:50:47.812Z,999.90
2019-04-07T23:53:56.446Z,999.90
2019-04-07T23:56:27.991Z,999.90
2019-04-07T23:59:00.422Z,999.90
